Time;durP1;ratioP1;P1;durP2;ratioP2;P2;SDS_P1;SDS_P2;PMS_P1;PMS_P2;Temp;Humidity;BMP_temperature;BMP_pressure;BME280_temperature;BME280_humidity;BME280_pressure;Samples;Min_cycle;Max_cycle;Signal;HPM_P1;HPM_P2
2021/11/11 00:02:21;;;;;;;5.72;3.13;;;;;;;;;;5092271;28;20032;-84
2021/11/11 00:04:46;;;;;;;2.10;1.60;;;;;;;;;;5092286;28;20024;-84
2021/11/11 00:07:12;;;;;;;4.20;2.45;;;;;;;;;;5092447;28;20372;-84
2021/11/11 00:09:37;;;;;;;5.70;2.80;;;;;;;;;;5096184;28;20400;-84
2021/11/11 00:12:02;;;;;;;1.98;1.55;;;;;;;;;;5096792;28;20028;-84
2021/11/11 00:14:28;;;;;;;3.53;2.90;;;;;;;;;;5096827;28;20503;-84
2021/11/11 00:16:53;;;;;;;0.85;0.85;;;;;;;;;;5096967;28;20035;-84
2021/11/11 00:19:19;;;;;;;2.80;2.55;;;;;;;;;;5097080;28;20016;-84
2021/11/11 00:21:44;;;;;;;5.13;1.40;;;;;;;;;;5096663;28;20032;-84
2021/11/11 00:24:09;;;;;;;3.63;2.38;;;;;;;;;;5096383;28;20031;-82
2021/11/11 00:26:35;;;;;;;3.30;1.92;;;;;;;;;;5096411;28;20421;-84
2021/11/11 00:29:00;;;;;;;3.70;3.03;;;;;;;;;;5096324;28;20040;-84
2021/11/11 00:31:25;;;;;;;9.45;3.22;;;;;;;;;;5096255;28;20032;-84
2021/11/11 00:33:51;;;;;;;3.40;3.10;;;;;;;;;;5096401;28;20038;-84
2021/11/11 00:36:16;;;;;;;10.40;3.03;;;;;;;;;;5096173;28;20062;-84
2021/11/11 00:38:42;;;;;;;2.40;2.20;;;;;;;;;;5096138;28;20465;-84
2021/11/11 00:41:10;;;;;;;1.63;1.52;;;;;;;;;;5095295;28;20037;-84
2021/11/11 00:43:35;;;;;;;1.98;1.88;;;;;;;;;;5096269;28;20425;-85
2021/11/11 00:46:00;;;;;;;3.20;3.00;;;;;;;;;;5096536;28;20024;-84
2021/11/11 00:48:26;;;;;;;2.45;2.25;;;;;;;;;;5095925;28;20028;-84
2021/11/11 00:50:53;;;;;;;2.63;2.47;;;;;;;;;;5096501;28;20064;-82
2021/11/11 00:53:18;;;;;;;2.63;2.42;;;;;;;;;;5094666;28;20036;-84
2021/11/11 00:55:43;;;;;;;5.57;4.80;;;;;;;;;;5095964;28;20445;-84
2021/11/11 00:58:09;;;;;;;3.08;1.88;;;;;;;;;;5096117;28;20039;-84
2021/11/11 01:00:36;;;;;;;3.47;3.15;;;;;;;;;;5095945;28;20538;-82
2021/11/11 01:03:04;;;;;;;3.03;2.10;;;;;;;;;;5095819;28;20031;-82
2021/11/11 01:05:30;;;;;;;4.05;3.70;;;;;;;;;;5095934;28;20027;-82
2021/11/11 01:07:55;;;;;;;1.40;1.30;;;;;;;;;;5095840;28;20055;-82
2021/11/11 01:10:20;;;;;;;4.90;4.05;;;;;;;;;;5095895;28;20024;-82
2021/11/11 01:12:47;;;;;;;2.67;2.45;;;;;;;;;;5095625;28;20073;-84
2021/11/11 01:15:14;;;;;;;3.05;2.75;;;;;;;;;;5095480;28;20543;-84
2021/11/11 01:17:40;;;;;;;2.95;2.70;;;;;;;;;;5095607;28;20052;-84
2021/11/11 01:20:08;;;;;;;1.77;1.60;;;;;;;;;;5094448;28;20074;-84
2021/11/11 01:22:34;;;;;;;1.50;1.40;;;;;;;;;;5094015;28;20020;-82
2021/11/11 01:24:59;;;;;;;2.65;2.45;;;;;;;;;;5095655;28;20467;-82
2021/11/11 01:27:24;;;;;;;3.20;2.33;;;;;;;;;;5094702;28;20034;-82
2021/11/11 01:29:49;;;;;;;1.98;1.83;;;;;;;;;;5095243;28;20452;-83
2021/11/11 01:32:15;;;;;;;4.70;2.72;;;;;;;;;;5095059;28;20024;-82
2021/11/11 01:34:40;;;;;;;0.98;0.98;;;;;;;;;;5095296;28;20495;-82
2021/11/11 01:37:06;;;;;;;3.90;3.50;;;;;;;;;;5095406;28;20480;-82
2021/11/11 01:39:31;;;;;;;4.30;3.70;;;;;;;;;;5095257;28;20487;-83
2021/11/11 01:41:57;;;;;;;3.88;2.60;;;;;;;;;;5095153;28;20127;-82
2021/11/11 01:44:22;;;;;;;1.38;1.27;;;;;;;;;;5095159;28;20029;-82
2021/11/11 01:46:48;;;;;;;2.65;2.42;;;;;;;;;;5094953;28;20024;-82
2021/11/11 01:49:14;;;;;;;3.47;2.35;;;;;;;;;;5095253;28;20040;-83
2021/11/11 01:51:40;;;;;;;4.53;3.88;;;;;;;;;;5095184;28;20119;-82
2021/11/11 01:54:06;;;;;;;3.35;2.83;;;;;;;;;;5094924;28;20044;-82
2021/11/11 01:56:32;;;;;;;2.60;1.77;;;;;;;;;;5094852;28;20082;-82
2021/11/11 01:58:57;;;;;;;1.75;1.65;;;;;;;;;;5094777;28;20032;-83
2021/11/11 02:01:22;;;;;;;2.55;2.35;;;;;;;;;;5094882;28;20444;-82
2021/11/11 02:03:48;;;;;;;3.42;2.83;;;;;;;;;;5094975;28;20035;-82
2021/11/11 02:06:13;;;;;;;2.85;1.52;;;;;;;;;;5094786;28;20035;-83
2021/11/11 02:08:39;;;;;;;3.10;2.83;;;;;;;;;;5094397;28;20529;-82
2021/11/11 02:11:04;;;;;;;1.30;1.23;;;;;;;;;;5094628;28;20067;-83
2021/11/11 02:13:30;;;;;;;3.58;2.08;;;;;;;;;;5094837;28;20032;-83
2021/11/11 02:15:55;;;;;;;2.55;2.15;;;;;;;;;;5094618;28;20024;-83
2021/11/11 02:18:20;;;;;;;0.80;0.80;;;;;;;;;;5094579;28;20028;-83
2021/11/11 02:20:45;;;;;;;3.40;1.70;;;;;;;;;;5094584;28;20135;-83
2021/11/11 02:23:12;;;;;;;2.88;2.50;;;;;;;;;;5093913;28;20024;-83
2021/11/11 02:25:38;;;;;;;2.38;1.95;;;;;;;;;;5094224;28;20048;-82
2021/11/11 02:28:04;;;;;;;0.90;0.88;;;;;;;;;;5094303;28;20130;-83
2021/11/11 02:30:30;;;;;;;4.38;2.50;;;;;;;;;;5094270;28;20027;-83
2021/11/11 02:32:56;;;;;;;2.40;2.25;;;;;;;;;;5093961;28;20028;-82
2021/11/11 02:35:22;;;;;;;1.80;1.70;;;;;;;;;;5093825;28;20461;-82
2021/11/11 02:37:47;;;;;;;1.23;1.17;;;;;;;;;;5094122;28;20055;-82
2021/11/11 02:40:15;;;;;;;2.53;2.33;;;;;;;;;;5094110;28;20451;-82
2021/11/11 02:42:41;;;;;;;1.25;1.20;;;;;;;;;;5093972;28;20130;-83
2021/11/11 02:45:08;;;;;;;1.98;1.88;;;;;;;;;;5092546;28;20380;-82
2021/11/11 02:47:34;;;;;;;1.63;1.33;;;;;;;;;;5093209;28;20033;-83
2021/11/11 02:49:59;;;;;;;3.03;2.28;;;;;;;;;;5093893;28;20035;-82
2021/11/11 02:52:25;;;;;;;2.67;1.88;;;;;;;;;;5094046;28;20028;-83
2021/11/11 02:54:50;;;;;;;1.80;0.98;;;;;;;;;;5093699;28;20063;-83
2021/11/11 02:57:18;;;;;;;1.33;1.23;;;;;;;;;;5093651;28;20031;-83
2021/11/11 02:59:44;;;;;;;0.88;0.88;;;;;;;;;;5074957;28;20013;-85
2021/11/11 03:02:40;;;;;;;3.85;2.38;;;;;;;;;;5072757;28;20141;-85
2021/11/11 03:05:06;;;;;;;1.05;0.43;;;;;;;;;;5072212;28;20048;-85
2021/11/11 03:07:31;;;;;;;0.43;0.40;;;;;;;;;;5073312;28;20040;-84
2021/11/11 03:09:57;;;;;;;1.70;1.60;;;;;;;;;;5073088;28;20102;-85
2021/11/11 03:12:22;;;;;;;1.10;1.10;;;;;;;;;;5073426;28;20115;-82
2021/11/11 03:14:50;;;;;;;0.75;0.75;;;;;;;;;;5073242;28;20067;-82
2021/11/11 03:17:15;;;;;;;4.70;2.72;;;;;;;;;;5073130;28;20389;-83
2021/11/11 03:19:40;;;;;;;3.63;1.40;;;;;;;;;;5072900;28;20043;-82
2021/11/11 03:22:08;;;;;;;1.02;0.82;;;;;;;;;;5073112;28;20123;-82
2021/11/11 03:24:34;;;;;;;2.53;1.35;;;;;;;;;;5078208;28;20471;-82
2021/11/11 03:26:59;;;;;;;1.73;1.13;;;;;;;;;;5092933;28;20067;-83
2021/11/11 03:29:25;;;;;;;4.60;2.63;;;;;;;;;;5092625;28;20076;-83
2021/11/11 03:31:50;;;;;;;0.38;0.38;;;;;;;;;;5092980;28;20016;-83
2021/11/11 03:34:16;;;;;;;1.23;1.17;;;;;;;;;;5093181;28;20032;-82
2021/11/11 03:36:41;;;;;;;0.75;0.75;;;;;;;;;;5093035;28;20541;-82
2021/11/11 03:39:07;;;;;;;0.70;0.70;;;;;;;;;;5092953;28;20494;-82
2021/11/11 03:41:32;;;;;;;3.10;2.72;;;;;;;;;;5093083;28;20032;-82
2021/11/11 03:43:58;;;;;;;1.42;1.33;;;;;;;;;;5091992;28;20032;-82
2021/11/11 03:46:23;;;;;;;3.92;2.50;;;;;;;;;;5093060;28;20381;-82
2021/11/11 03:48:49;;;;;;;0.65;0.65;;;;;;;;;;5093028;28;20044;-82
2021/11/11 03:51:14;;;;;;;1.05;0.98;;;;;;;;;;5092689;28;20042;-82
2021/11/11 03:53:40;;;;;;;1.60;1.50;;;;;;;;;;5093093;28;20020;-81
2021/11/11 03:56:05;;;;;;;3.05;0.65;;;;;;;;;;5092865;28;20480;-82
2021/11/11 03:58:30;;;;;;;2.30;1.95;;;;;;;;;;5093028;28;20114;-81
2021/11/11 04:00:56;;;;;;;2.30;2.03;;;;;;;;;;5092934;28;20345;-84
2021/11/11 04:03:21;;;;;;;1.70;1.42;;;;;;;;;;5092811;28;20078;-84
2021/11/11 04:05:46;;;;;;;0.98;0.60;;;;;;;;;;5092476;28;20048;-84
2021/11/11 04:08:12;;;;;;;0.60;0.60;;;;;;;;;;5092698;28;20032;-84
2021/11/11 04:10:37;;;;;;;0.68;0.68;;;;;;;;;;5092785;28;20110;-85
2021/11/11 04:13:03;;;;;;;0.70;0.50;;;;;;;;;;5092123;28;20043;-85
2021/11/11 04:15:29;;;;;;;0.80;0.77;;;;;;;;;;5092452;28;20024;-82
2021/11/11 04:17:54;;;;;;;0.50;0.50;;;;;;;;;;5092693;28;20032;-82
2021/11/11 04:20:20;;;;;;;0.93;0.82;;;;;;;;;;5091958;28;20024;-83
2021/11/11 04:22:46;;;;;;;0.30;0.30;;;;;;;;;;5092194;28;20024;-83
2021/11/11 04:25:16;;;;;;;0.73;0.73;;;;;;;;;;5092303;28;20028;-84
2021/11/11 04:30:29;;;;;;;1.75;1.25;;;;;;;;;;5092498;28;20364;-84
2021/11/11 04:32:54;;;;;;;0.68;0.68;;;;;;;;;;5092512;28;20024;-84
2021/11/11 04:35:21;;;;;;;0.43;0.43;;;;;;;;;;5092320;28;20057;-84
2021/11/11 04:43:02;;;;;;;0.10;0.10;;;;;;;;;;5092456;28;20024;-84
2021/11/11 04:46:00;;;;;;;1.45;0.90;;;;;;;;;;5092316;28;20028;-83
2021/11/11 04:59:35;;;;;;;0.40;0.40;;;;;;;;;;5094510;28;20392;-83
2021/11/11 05:04:36;;;;;;;1.42;1.33;;;;;;;;;;5095907;28;20039;-84
2021/11/11 05:07:02;;;;;;;0.60;0.60;;;;;;;;;;5095954;28;20027;-84
2021/11/11 05:09:27;;;;;;;0.35;0.35;;;;;;;;;;5095355;28;20035;-84
2021/11/11 05:11:52;;;;;;;4.03;0.70;;;;;;;;;;5095597;28;20028;-84
2021/11/11 05:14:18;;;;;;;0.20;0.20;;;;;;;;;;5095606;28;20027;-83
2021/11/11 05:16:43;;;;;;;0.15;0.13;;;;;;;;;;5095394;28;20039;-84
2021/11/11 05:19:09;;;;;;;0.05;0.05;;;;;;;;;;5095708;28;20030;-83
2021/11/11 05:21:34;;;;;;;0.80;0.75;;;;;;;;;;5094773;28;20056;-83
2021/11/11 05:23:59;;;;;;;0.10;0.10;;;;;;;;;;5094780;28;20067;-83
2021/11/11 05:26:25;;;;;;;0.00;0.00;;;;;;;;;;5095125;28;20113;-84
2021/11/11 05:28:50;;;;;;;0.10;0.10;;;;;;;;;;5095252;28;20035;-84
2021/11/11 05:31:16;;;;;;;0.17;0.17;;;;;;;;;;5095517;28;20024;-83
2021/11/11 05:33:41;;;;;;;0.10;0.10;;;;;;;;;;5094911;28;20028;-84
2021/11/11 05:36:06;;;;;;;0.15;0.15;;;;;;;;;;5093535;28;20079;-84
2021/11/11 05:38:32;;;;;;;0.00;0.00;;;;;;;;;;5094479;28;20046;-84
2021/11/11 05:40:57;;;;;;;0.20;0.20;;;;;;;;;;5094989;28;20063;-84
2021/11/11 05:43:22;;;;;;;0.00;0.00;;;;;;;;;;5095344;28;20024;-84
2021/11/11 05:45:47;;;;;;;0.22;0.22;;;;;;;;;;5094882;28;20036;-84
2021/11/11 05:48:13;;;;;;;0.00;0.00;;;;;;;;;;5095196;28;20040;-85
2021/11/11 05:50:38;;;;;;;0.03;0.03;;;;;;;;;;5092609;28;20497;-84
2021/11/11 05:53:04;;;;;;;0.57;0.57;;;;;;;;;;5094151;28;20081;-84
2021/11/11 05:55:29;;;;;;;0.10;0.10;;;;;;;;;;5094655;28;20031;-84
2021/11/11 05:57:55;;;;;;;0.10;0.10;;;;;;;;;;5094516;28;20024;-85
2021/11/11 06:00:21;;;;;;;0.00;0.00;;;;;;;;;;5094915;28;20047;-85
2021/11/11 06:02:47;;;;;;;0.00;0.00;;;;;;;;;;5094433;28;20065;-84
2021/11/11 06:05:12;;;;;;;0.38;0.35;;;;;;;;;;5094278;28;20020;-83
2021/11/11 06:07:37;;;;;;;0.47;0.47;;;;;;;;;;5094163;28;20039;-84
2021/11/11 06:10:04;;;;;;;0.00;0.00;;;;;;;;;;5094451;28;20031;-84
2021/11/11 06:12:29;;;;;;;0.10;0.10;;;;;;;;;;5094185;28;20476;-84
2021/11/11 06:14:54;;;;;;;0.35;0.35;;;;;;;;;;5094553;28;20036;-84
2021/11/11 06:17:19;;;;;;;0.32;0.30;;;;;;;;;;5094636;28;20101;-84
2021/11/11 06:19:46;;;;;;;0.25;0.25;;;;;;;;;;5085344;28;20020;-84
2021/11/11 06:22:11;;;;;;;0.65;0.65;;;;;;;;;;5093042;28;20400;-85
2021/11/11 06:24:37;;;;;;;0.75;0.57;;;;;;;;;;5093640;28;20032;-85
2021/11/11 06:27:02;;;;;;;1.27;1.17;;;;;;;;;;5092868;28;20047;-85
2021/11/11 06:29:27;;;;;;;0.15;0.15;;;;;;;;;;5093745;28;20043;-85
2021/11/11 06:31:53;;;;;;;0.43;0.43;;;;;;;;;;5093178;28;20119;-85
2021/11/11 06:34:18;;;;;;;0.13;0.13;;;;;;;;;;5093113;28;20016;-85
2021/11/11 06:36:43;;;;;;;0.00;0.00;;;;;;;;;;5089155;28;20048;-85
2021/11/11 06:39:09;;;;;;;0.28;0.28;;;;;;;;;;5088723;28;20048;-85
2021/11/11 06:41:34;;;;;;;1.67;0.65;;;;;;;;;;5087905;28;20491;-86
2021/11/11 06:43:59;;;;;;;0.20;0.20;;;;;;;;;;5092535;28;20032;-85
2021/11/11 06:46:25;;;;;;;0.60;0.43;;;;;;;;;;5092817;28;20114;-86
2021/11/11 06:48:50;;;;;;;0.20;0.20;;;;;;;;;;5092117;28;20040;-85
2021/11/11 06:51:15;;;;;;;1.08;0.63;;;;;;;;;;5093016;28;20032;-85
2021/11/11 06:53:41;;;;;;;0.20;0.20;;;;;;;;;;5092877;28;20494;-85
2021/11/11 06:56:06;;;;;;;0.20;0.15;;;;;;;;;;5093087;28;20024;-85
2021/11/11 06:58:32;;;;;;;1.75;1.27;;;;;;;;;;5092845;28;20020;-85
2021/11/11 07:00:58;;;;;;;0.65;0.65;;;;;;;;;;5093212;28;20185;-85
2021/11/11 07:03:23;;;;;;;0.20;0.20;;;;;;;;;;5093329;28;20489;-85
2021/11/11 07:05:49;;;;;;;2.50;0.63;;;;;;;;;;5093693;28;20525;-85
2021/11/11 07:08:15;;;;;;;0.10;0.10;;;;;;;;;;5093822;28;20031;-83
2021/11/11 07:10:41;;;;;;;0.82;0.82;;;;;;;;;;5092639;28;20030;-84
2021/11/11 07:13:07;;;;;;;0.17;0.17;;;;;;;;;;5093166;28;20063;-84
2021/11/11 07:15:33;;;;;;;0.30;0.30;;;;;;;;;;5093140;28;20120;-84
2021/11/11 07:17:58;;;;;;;0.95;0.95;;;;;;;;;;5092597;28;20035;-83
2021/11/11 07:20:24;;;;;;;3.10;0.68;;;;;;;;;;5092068;28;20384;-83
2021/11/11 07:22:50;;;;;;;0.80;0.80;;;;;;;;;;5089609;28;20031;-83
2021/11/11 07:25:16;;;;;;;0.30;0.30;;;;;;;;;;5092904;28;20020;-83
2021/11/11 07:27:43;;;;;;;2.05;1.48;;;;;;;;;;5093011;28;20123;-84
2021/11/11 07:30:10;;;;;;;1.48;1.38;;;;;;;;;;5093073;28;20032;-84
2021/11/11 07:32:36;;;;;;;0.45;0.45;;;;;;;;;;5093253;28;20024;-84
2021/11/11 07:35:01;;;;;;;0.20;0.20;;;;;;;;;;5093598;28;20105;-84
2021/11/11 07:37:26;;;;;;;0.80;0.57;;;;;;;;;;5092868;28;20495;-83
2021/11/11 07:39:53;;;;;;;0.40;0.40;;;;;;;;;;5092554;28;20456;-84
2021/11/11 07:42:20;;;;;;;1.17;1.00;;;;;;;;;;5093515;28;20036;-85
2021/11/11 07:44:46;;;;;;;1.63;1.20;;;;;;;;;;5093111;28;20028;-84
2021/11/11 07:47:11;;;;;;;1.95;1.17;;;;;;;;;;5092689;28;20356;-85
2021/11/11 07:49:36;;;;;;;0.30;0.30;;;;;;;;;;5093008;28;20093;-84
2021/11/11 07:52:02;;;;;;;0.10;0.10;;;;;;;;;;5092959;28;20028;-83
2021/11/11 07:54:27;;;;;;;0.20;0.20;;;;;;;;;;5092390;28;20055;-83
2021/11/11 07:56:52;;;;;;;0.57;0.57;;;;;;;;;;5092133;28;20541;-84
2021/11/11 07:59:18;;;;;;;0.13;0.13;;;;;;;;;;5091576;28;20064;-84
2021/11/11 08:01:43;;;;;;;0.75;0.63;;;;;;;;;;5082917;28;20020;-84
2021/11/11 08:04:08;;;;;;;0.40;0.40;;;;;;;;;;5091603;28;20024;-83
2021/11/11 08:06:34;;;;;;;0.52;0.52;;;;;;;;;;5091545;28;20036;-84
2021/11/11 08:08:59;;;;;;;0.10;0.10;;;;;;;;;;5078744;28;20028;-84
2021/11/11 08:11:24;;;;;;;0.10;0.10;;;;;;;;;;5078860;28;20115;-85
2021/11/11 08:13:50;;;;;;;0.70;0.68;;;;;;;;;;5071851;28;20070;-85
2021/11/11 08:16:15;;;;;;;1.45;1.00;;;;;;;;;;5083275;28;20107;-84
2021/11/11 08:18:41;;;;;;;0.32;0.32;;;;;;;;;;5074889;28;20024;-84
2021/11/11 08:21:06;;;;;;;0.10;0.10;;;;;;;;;;5090344;28;20032;-84
2021/11/11 08:23:32;;;;;;;1.90;1.55;;;;;;;;;;5090651;28;20091;-84
2021/11/11 08:26:03;;;;;;;0.57;0.57;;;;;;;;;;5091340;28;20047;-84
2021/11/11 08:28:28;;;;;;;13.25;1.67;;;;;;;;;;5091433;28;20071;-85
2021/11/11 08:30:54;;;;;;;0.90;0.90;;;;;;;;;;5095550;28;20051;-84
2021/11/11 08:33:19;;;;;;;0.47;0.43;;;;;;;;;;5096051;28;20036;-84
2021/11/11 08:35:46;;;;;;;0.82;0.68;;;;;;;;;;5095594;28;20175;-84
2021/11/11 08:38:11;;;;;;;0.30;0.30;;;;;;;;;;5095915;28;20066;-85
2021/11/11 08:40:37;;;;;;;0.93;0.93;;;;;;;;;;5085800;28;20051;-84
2021/11/11 08:43:02;;;;;;;2.60;0.50;;;;;;;;;;5095419;28;20461;-85
2021/11/11 08:45:28;;;;;;;0.17;0.17;;;;;;;;;;5095991;28;20028;-85
2021/11/11 08:47:54;;;;;;;0.75;0.30;;;;;;;;;;5095468;28;20424;-85
2021/11/11 08:50:20;;;;;;;0.88;0.70;;;;;;;;;;5091787;28;20119;-85
2021/11/11 08:52:49;;;;;;;0.40;0.40;;;;;;;;;;5091300;28;20016;-85
2021/11/11 08:55:16;;;;;;;7.63;1.33;;;;;;;;;;5094475;28;20098;-84
2021/11/11 08:57:42;;;;;;;0.90;0.65;;;;;;;;;;5095060;28;20058;-84
2021/11/11 09:00:12;;;;;;;0.35;0.35;;;;;;;;;;5095647;28;20098;-85
2021/11/11 09:02:38;;;;;;;0.75;0.75;;;;;;;;;;5094621;28;20036;-85
2021/11/11 09:05:04;;;;;;;1.08;1.02;;;;;;;;;;5095945;28;20107;-85
2021/11/11 09:07:29;;;;;;;0.63;0.63;;;;;;;;;;5095757;28;20107;-84
2021/11/11 09:09:54;;;;;;;0.10;0.10;;;;;;;;;;5094881;28;20051;-84
2021/11/11 09:12:20;;;;;;;0.10;0.10;;;;;;;;;;5095651;28;20024;-85
2021/11/11 09:14:45;;;;;;;0.25;0.25;;;;;;;;;;5094893;28;20035;-85
2021/11/11 09:17:10;;;;;;;0.40;0.40;;;;;;;;;;5095742;28;20245;-85
2021/11/11 09:19:35;;;;;;;0.10;0.10;;;;;;;;;;5095309;28;20115;-85
2021/11/11 09:22:01;;;;;;;0.93;0.93;;;;;;;;;;5095524;28;20022;-85
2021/11/11 09:24:26;;;;;;;1.35;0.30;;;;;;;;;;5094666;28;20028;-86
2021/11/11 09:26:51;;;;;;;2.03;0.63;;;;;;;;;;5080375;28;20066;-85
2021/11/11 09:29:17;;;;;;;0.63;0.63;;;;;;;;;;5091745;28;20119;-86
2021/11/11 09:31:42;;;;;;;0.32;0.32;;;;;;;;;;5088749;28;20034;-84
2021/11/11 09:34:07;;;;;;;0.30;0.22;;;;;;;;;;5091032;28;20068;-85
2021/11/11 09:36:33;;;;;;;0.10;0.10;;;;;;;;;;5091057;28;20048;-85
2021/11/11 09:38:59;;;;;;;0.60;0.50;;;;;;;;;;5088956;28;20365;-86
2021/11/11 09:41:24;;;;;;;0.43;0.43;;;;;;;;;;5089887;28;20099;-86
2021/11/11 09:43:51;;;;;;;2.03;0.75;;;;;;;;;;5091040;28;20055;-85
2021/11/11 09:46:19;;;;;;;0.10;0.10;;;;;;;;;;5091598;28;20483;-85
2021/11/11 09:48:45;;;;;;;1.15;0.90;;;;;;;;;;5092670;28;20357;-85
2021/11/11 09:51:14;;;;;;;1.25;1.00;;;;;;;;;;5086968;28;20573;-85
2021/11/11 09:54:00;;;;;;;0.32;0.32;;;;;;;;;;5084381;28;20025;-85
2021/11/11 09:59:09;;;;;;;0.60;0.60;;;;;;;;;;5090718;28;20089;-86
2021/11/11 10:01:35;;;;;;;0.32;0.32;;;;;;;;;;5090017;28;20031;-85
2021/11/11 10:04:01;;;;;;;0.73;0.73;;;;;;;;;;5090649;28;20032;-86
2021/11/11 10:06:27;;;;;;;0.10;0.10;;;;;;;;;;5091642;28;20035;-86
2021/11/11 10:08:59;;;;;;;0.10;0.10;;;;;;;;;;5091336;28;20044;-85
2021/11/11 10:11:29;;;;;;;0.50;0.50;;;;;;;;;;5091721;28;20058;-86
2021/11/11 10:14:01;;;;;;;0.32;0.32;;;;;;;;;;5083349;28;20030;-86
2021/11/11 10:16:26;;;;;;;0.50;0.50;;;;;;;;;;5090660;28;20107;-86
2021/11/11 10:18:56;;;;;;;0.35;0.35;;;;;;;;;;5089344;28;20099;-86
2021/11/11 10:24:11;;;;;;;1.10;1.02;;;;;;;;;;5090669;28;20036;-85
2021/11/11 10:26:39;;;;;;;0.85;0.40;;;;;;;;;;5091584;28;20031;-86
2021/11/11 10:29:23;;;;;;;0.82;0.50;;;;;;;;;;5090970;28;20070;-86
2021/11/11 10:31:53;;;;;;;0.57;0.57;;;;;;;;;;5089210;28;20032;-86
2021/11/11 10:34:18;;;;;;;0.28;0.20;;;;;;;;;;5090413;28;20043;-87
2021/11/11 10:36:46;;;;;;;0.10;0.10;;;;;;;;;;5089608;28;20405;-85
2021/11/11 10:39:12;;;;;;;0.22;0.22;;;;;;;;;;5090885;28;20095;-85
2021/11/11 10:41:37;;;;;;;0.10;0.10;;;;;;;;;;5088543;28;20173;-85
2021/11/11 10:44:20;;;;;;;0.00;0.00;;;;;;;;;;5088503;28;20031;-85
2021/11/11 10:47:07;;;;;;;0.13;0.13;;;;;;;;;;5090752;28;20032;-84
2021/11/11 10:49:42;;;;;;;0.85;0.70;;;;;;;;;;5089687;28;20123;-84
2021/11/11 10:52:20;;;;;;;0.68;0.68;;;;;;;;;;5089683;28;20582;-85
2021/11/11 10:55:00;;;;;;;0.00;0.00;;;;;;;;;;5088363;28;20047;-84
2021/11/11 10:57:38;;;;;;;0.20;0.20;;;;;;;;;;5089931;28;20107;-84
2021/11/11 11:00:09;;;;;;;1.75;0.75;;;;;;;;;;5089803;28;20503;-86
2021/11/11 11:02:50;;;;;;;0.00;0.00;;;;;;;;;;5089867;28;20484;-88
2021/11/11 11:05:16;;;;;;;0.10;0.10;;;;;;;;;;5089580;28;20107;-87
2021/11/11 11:07:41;;;;;;;0.08;0.08;;;;;;;;;;5089368;28;20032;-88
2021/11/11 11:10:08;;;;;;;0.10;0.10;;;;;;;;;;5090155;28;20066;-87
2021/11/11 11:12:33;;;;;;;0.30;0.30;;;;;;;;;;5090195;28;20016;-87
2021/11/11 11:14:59;;;;;;;0.25;0.25;;;;;;;;;;5085606;28;20413;-87
2021/11/11 11:17:24;;;;;;;0.28;0.20;;;;;;;;;;5079483;28;20036;-87
2021/11/11 11:19:50;;;;;;;0.20;0.20;;;;;;;;;;5076843;28;20380;-85
2021/11/11 11:22:24;;;;;;;0.03;0.03;;;;;;;;;;5089775;28;20028;-87
2021/11/11 11:25:00;;;;;;;0.00;0.00;;;;;;;;;;5089343;28;20131;-87
2021/11/11 11:27:34;;;;;;;0.28;0.28;;;;;;;;;;5089534;28;20508;-87
2021/11/11 11:30:06;;;;;;;0.28;0.28;;;;;;;;;;5067824;28;20492;-87
2021/11/11 11:32:32;;;;;;;0.30;0.30;;;;;;;;;;5070140;28;20028;-87
2021/11/11 11:34:59;;;;;;;0.43;0.43;;;;;;;;;;5069444;28;20032;-87
2021/11/11 11:37:27;;;;;;;0.52;0.52;;;;;;;;;;5068937;28;20048;-87
2021/11/11 11:39:56;;;;;;;0.10;0.10;;;;;;;;;;5087073;28;20024;-86
2021/11/11 11:42:41;;;;;;;0.10;0.10;;;;;;;;;;5066451;28;20040;-87
2021/11/11 11:45:08;;;;;;;0.22;0.22;;;;;;;;;;5068646;28;20032;-87
2021/11/11 11:50:13;;;;;;;0.00;0.00;;;;;;;;;;5068059;28;20438;-87
2021/11/11 11:52:42;;;;;;;0.00;0.00;;;;;;;;;;5068502;28;20044;-87
2021/11/11 12:00:30;;;;;;;0.00;0.00;;;;;;;;;;5077828;28;20036;-86
2021/11/11 12:03:15;;;;;;;0.47;0.38;;;;;;;;;;5068461;28;20016;-87
2021/11/11 12:14:15;;;;;;;0.20;0.20;;;;;;;;;;5084200;28;20046;-88
2021/11/11 12:16:59;;;;;;;0.00;0.00;;;;;;;;;;5081996;28;20032;-88
2021/11/11 12:39:34;;;;;;;0.00;0.00;;;;;;;;;;5066712;28;19937;-86
2021/11/11 12:42:02;;;;;;;0.00;0.00;;;;;;;;;;5070550;28;20047;-86
2021/11/11 12:44:28;;;;;;;0.00;0.00;;;;;;;;;;5067954;28;20037;-86
2021/11/11 12:46:54;;;;;;;0.00;0.00;;;;;;;;;;5079555;28;20044;-86
2021/11/11 12:49:24;;;;;;;0.00;0.00;;;;;;;;;;5070063;28;20040;-86
2021/11/11 12:52:08;;;;;;;0.00;0.00;;;;;;;;;;5071201;28;20060;-86
2021/11/11 12:54:33;;;;;;;0.00;0.00;;;;;;;;;;5075940;28;20028;-87
2021/11/11 12:57:02;;;;;;;0.00;0.00;;;;;;;;;;5073870;28;20036;-86
2021/11/11 12:59:30;;;;;;;0.00;0.00;;;;;;;;;;5066858;28;20070;-87
2021/11/11 13:01:58;;;;;;;0.13;0.13;;;;;;;;;;5076287;28;20051;-87
2021/11/11 13:04:26;;;;;;;0.00;0.00;;;;;;;;;;5073634;28;20024;-88
2021/11/11 13:06:54;;;;;;;0.00;0.00;;;;;;;;;;5076587;28;20396;-87
2021/11/11 13:09:24;;;;;;;1.67;1.10;;;;;;;;;;5062503;28;20055;-87
2021/11/11 13:11:51;;;;;;;0.00;0.00;;;;;;;;;;5073932;28;20073;-86
2021/11/11 13:14:20;;;;;;;0.00;0.00;;;;;;;;;;5067630;28;20520;-85
2021/11/11 13:16:54;;;;;;;0.10;0.10;;;;;;;;;;5074268;28;20019;-86
2021/11/11 13:19:29;;;;;;;0.00;0.00;;;;;;;;;;5072879;28;20029;-85
2021/11/11 13:21:57;;;;;;;0.45;0.45;;;;;;;;;;5070554;28;20115;-85
2021/11/11 14:01:09;;;;;;;0.75;0.75;;;;;;;;;;5073699;28;20075;-86
2021/11/11 16:24:11;;;;;;;0.73;0.73;;;;;;;;;;5065193;28;20059;-88
2021/11/11 16:26:36;;;;;;;0.25;0.25;;;;;;;;;;5071342;28;20033;-87
2021/11/11 16:29:03;;;;;;;1.90;1.42;;;;;;;;;;5073201;28;20042;-86
2021/11/11 16:31:28;;;;;;;3.20;1.35;;;;;;;;;;5069193;28;20029;-86
2021/11/11 16:33:57;;;;;;;0.57;0.57;;;;;;;;;;5066140;28;20021;-88
2021/11/11 16:36:22;;;;;;;2.20;1.63;;;;;;;;;;5075332;28;20040;-87
2021/11/11 16:38:48;;;;;;;2.85;2.10;;;;;;;;;;5069581;28;20031;-87
2021/11/11 16:41:14;;;;;;;1.30;1.20;;;;;;;;;;5063977;28;20033;-86
2021/11/11 16:43:39;;;;;;;0.45;0.45;;;;;;;;;;5068841;28;20452;-87
2021/11/11 16:46:05;;;;;;;0.10;0.10;;;;;;;;;;5072529;28;20028;-88
2021/11/11 16:48:31;;;;;;;1.65;1.55;;;;;;;;;;5071796;28;20045;-88
2021/11/11 16:50:56;;;;;;;0.77;0.70;;;;;;;;;;5077909;28;20032;-86
2021/11/11 16:53:23;;;;;;;3.60;1.10;;;;;;;;;;5069751;28;20451;-87
2021/11/11 16:55:49;;;;;;;0.10;0.10;;;;;;;;;;5078245;28;20024;-87
2021/11/11 16:58:14;;;;;;;0.10;0.10;;;;;;;;;;5073944;28;20027;-87
2021/11/11 17:00:40;;;;;;;0.90;0.90;;;;;;;;;;5067802;28;20111;-87
2021/11/11 17:03:05;;;;;;;2.05;1.13;;;;;;;;;;5068164;28;20021;-87
2021/11/11 17:05:30;;;;;;;0.43;0.43;;;;;;;;;;5072665;28;20036;-87
2021/11/11 17:07:56;;;;;;;0.88;0.88;;;;;;;;;;5075349;28;20055;-87
2021/11/11 17:10:21;;;;;;;0.52;0.52;;;;;;;;;;5076182;28;20514;-87
2021/11/11 17:12:47;;;;;;;0.10;0.10;;;;;;;;;;5068468;28;20021;-87
2021/11/11 17:15:16;;;;;;;0.40;0.40;;;;;;;;;;5067591;28;20373;-87
2021/11/11 17:17:43;;;;;;;1.13;1.02;;;;;;;;;;5080002;28;20040;-85
2021/11/11 17:20:09;;;;;;;0.30;0.30;;;;;;;;;;5078031;28;20164;-86
2021/11/11 17:22:45;;;;;;;0.10;0.10;;;;;;;;;;5071220;28;20056;-87
2021/11/11 17:28:13;;;;;;;1.80;1.27;;;;;;;;;;5079684;28;20435;-86
2021/11/11 17:30:39;;;;;;;0.20;0.20;;;;;;;;;;5065050;28;20056;-87
2021/11/11 17:33:05;;;;;;;0.80;0.80;;;;;;;;;;5076709;28;20057;-87
2021/11/11 17:35:31;;;;;;;0.00;0.00;;;;;;;;;;5065930;28;20029;-86
2021/11/11 17:37:56;;;;;;;1.00;0.30;;;;;;;;;;5073069;28;20461;-86
2021/11/11 17:40:22;;;;;;;0.00;0.00;;;;;;;;;;5074418;28;20031;-85
2021/11/11 17:42:49;;;;;;;0.10;0.10;;;;;;;;;;5071252;28;20135;-86
2021/11/11 17:45:16;;;;;;;0.35;0.35;;;;;;;;;;5071891;28;20526;-85
2021/11/11 17:47:43;;;;;;;0.13;0.13;;;;;;;;;;5069652;28;20036;-85
2021/11/11 17:50:17;;;;;;;0.75;0.73;;;;;;;;;;5082346;28;20081;-87
2021/11/11 17:52:50;;;;;;;0.10;0.10;;;;;;;;;;5070057;28;20181;-85
2021/11/11 17:55:19;;;;;;;0.10;0.10;;;;;;;;;;5071019;28;20100;-86
2021/11/11 17:57:44;;;;;;;0.10;0.10;;;;;;;;;;5088849;28;20031;-86
2021/11/11 18:00:10;;;;;;;1.00;0.73;;;;;;;;;;5088352;28;20384;-86
2021/11/11 18:02:36;;;;;;;1.25;1.15;;;;;;;;;;5083880;28;20395;-86
2021/11/11 18:05:03;;;;;;;0.20;0.20;;;;;;;;;;5087313;28;20031;-86
2021/11/11 18:07:30;;;;;;;1.15;1.05;;;;;;;;;;5082313;28;20078;-86
2021/11/11 18:10:09;;;;;;;0.80;0.75;;;;;;;;;;5087606;28;20075;-86
2021/11/11 18:12:45;;;;;;;0.47;0.47;;;;;;;;;;5088792;28;20032;-86
2021/11/11 18:15:15;;;;;;;0.38;0.38;;;;;;;;;;5090405;28;20042;-85
2021/11/11 18:17:49;;;;;;;0.20;0.20;;;;;;;;;;5090399;28;20090;-86
2021/11/11 18:20:15;;;;;;;0.10;0.10;;;;;;;;;;5090580;28;20140;-86
2021/11/11 18:22:40;;;;;;;0.17;0.17;;;;;;;;;;5089351;28;20160;-86
2021/11/11 18:25:06;;;;;;;1.15;0.40;;;;;;;;;;5090212;28;20031;-85
2021/11/11 18:27:33;;;;;;;0.10;0.10;;;;;;;;;;5086064;28;20553;-86
2021/11/11 18:30:06;;;;;;;1.17;1.10;;;;;;;;;;5090753;28;20043;-86
2021/11/11 18:32:33;;;;;;;1.00;0.82;;;;;;;;;;5083069;28;20071;-86
2021/11/11 18:35:06;;;;;;;1.92;1.42;;;;;;;;;;5071027;28;20036;-85
2021/11/11 18:37:43;;;;;;;4.10;3.25;;;;;;;;;;5069838;28;20460;-86
2021/11/11 18:40:08;;;;;;;3.53;3.22;;;;;;;;;;5084491;28;20139;-86
2021/11/11 18:42:34;;;;;;;3.20;1.58;;;;;;;;;;5084255;28;20034;-86
2021/11/11 18:44:59;;;;;;;0.70;0.70;;;;;;;;;;5088964;28;20077;-86
2021/11/11 18:49:51;;;;;;;0.22;0.22;;;;;;;;;;5089960;28;20046;-86